sensor_id;sensor_type;location;lat;lon;timestamp;temperature;humidity
13600;DHT22;6871;51.34740610;4.31323160;2023-11-21T00:01:07;15.20;92.40
13600;DHT22;6871;51.34740610;4.31323160;2023-11-21T00:03:37;15.20;92.40
13600;DHT22;6871;51.34740610;4.31323160;2023-11-21T00:06:07;15.20;92.40
13600;DHT22;6871;51.34740610;4.31323160;2023-11-21T00:08:37;15.10;92.40
13600;DHT22;6871;51.34740610;4.31323160;2023-11-21T00:11:06;15.10;92.40
13600;DHT22;6871;51.34740610;4.31323160;2023-11-21T00:13:36;15.10;92.40
13600;DHT22;6871;51.34740610;4.31323160;2023-11-21T00:16:06;15.10;92.40
13600;DHT22;6871;51.34740610;4.31323160;2023-11-21T00:18:36;15.10;92.40
13600;DHT22;6871;51.34740610;4.31323160;2023-11-21T00:21:06;15.10;92.40
13600;DHT22;6871;51.34740610;4.31323160;2023-11-21T00:23:35;15.10;92.40
13600;DHT22;6871;51.34740610;4.31323160;2023-11-21T00:26:05;15.10;92.40
13600;DHT22;6871;51.34740610;4.31323160;2023-11-21T00:28:35;15.10;92.40
13600;DHT22;6871;51.34740610;4.31323160;2023-11-21T00:31:05;15.10;92.40
13600;DHT22;6871;51.34740610;4.31323160;2023-11-21T00:33:34;15.20;92.40
13600;DHT22;6871;51.34740610;4.31323160;2023-11-21T00:36:04;15.20;92.40
13600;DHT22;6871;51.34740610;4.31323160;2023-11-21T00:38:35;15.10;92.40
13600;DHT22;6871;51.34740610;4.31323160;2023-11-21T00:41:04;15.10;92.40
13600;DHT22;6871;51.34740610;4.31323160;2023-11-21T00:43:34;15.10;92.40
13600;DHT22;6871;51.34740610;4.31323160;2023-11-21T00:46:06;15.10;92.40
13600;DHT22;6871;51.34740610;4.31323160;2023-11-21T00:48:35;15.10;92.40
13600;DHT22;6871;51.34740610;4.31323160;2023-11-21T00:51:06;15.10;92.40
13600;DHT22;6871;51.34740610;4.31323160;2023-11-21T00:53:35;15.10;92.40
13600;DHT22;6871;51.34740610;4.31323160;2023-11-21T00:56:05;15.10;92.40
13600;DHT22;6871;51.34740610;4.31323160;2023-11-21T00:58:36;15.10;92.40
13600;DHT22;6871;51.34740610;4.31323160;2023-11-21T01:01:06;15.10;92.40
13600;DHT22;6871;51.34740610;4.31323160;2023-11-21T01:03:35;15.10;92.40
13600;DHT22;6871;51.34740610;4.31323160;2023-11-21T01:06:05;15.10;92.50
13600;DHT22;6871;51.34740610;4.31323160;2023-11-21T01:08:36;15.10;92.40
13600;DHT22;6871;51.34740610;4.31323160;2023-11-21T01:11:06;15.10;92.50
13600;DHT22;6871;51.34740610;4.31323160;2023-11-21T01:13:36;15.10;92.50
13600;DHT22;6871;51.34740610;4.31323160;2023-11-21T01:16:06;15.10;92.50
13600;DHT22;6871;51.34740610;4.31323160;2023-11-21T01:18:36;15.10;92.40
13600;DHT22;6871;51.34740610;4.31323160;2023-11-21T01:21:06;15.10;92.40
13600;DHT22;6871;51.34740610;4.31323160;2023-11-21T01:23:36;15.10;92.40
13600;DHT22;6871;51.34740610;4.31323160;2023-11-21T01:26:06;15.10;92.40
13600;DHT22;6871;51.34740610;4.31323160;2023-11-21T01:28:37;15.10;92.40
13600;DHT22;6871;51.34740610;4.31323160;2023-11-21T01:31:06;15.10;92.40
13600;DHT22;6871;51.34740610;4.31323160;2023-11-21T01:33:35;15.10;92.40
13600;DHT22;6871;51.34740610;4.31323160;2023-11-21T01:36:06;15.10;92.40
13600;DHT22;6871;51.34740610;4.31323160;2023-11-21T01:38:35;15.10;92.40
13600;DHT22;6871;51.34740610;4.31323160;2023-11-21T01:41:05;15.10;92.40
13600;DHT22;6871;51.34740610;4.31323160;2023-11-21T01:43:35;15.10;92.40
13600;DHT22;6871;51.34740610;4.31323160;2023-11-21T01:46:05;15.10;92.40
13600;DHT22;6871;51.34740610;4.31323160;2023-11-21T01:48:35;15.10;92.40
13600;DHT22;6871;51.34740610;4.31323160;2023-11-21T01:51:07;15.10;92.40
13600;DHT22;6871;51.34740610;4.31323160;2023-11-21T01:53:36;15.10;92.40
13600;DHT22;6871;51.34740610;4.31323160;2023-11-21T01:56:07;15.10;92.40
13600;DHT22;6871;51.34740610;4.31323160;2023-11-21T01:58:37;15.10;92.40
13600;DHT22;6871;51.34740610;4.31323160;2023-11-21T02:01:07;15.10;92.40
13600;DHT22;6871;51.34740610;4.31323160;2023-11-21T02:03:37;15.00;92.40
13600;DHT22;6871;51.34740610;4.31323160;2023-11-21T02:06:09;15.10;92.40
13600;DHT22;6871;51.34740610;4.31323160;2023-11-21T02:08:38;15.10;92.40
13600;DHT22;6871;51.34740610;4.31323160;2023-11-21T02:11:09;15.10;92.30
13600;DHT22;6871;51.34740610;4.31323160;2023-11-21T02:13:40;15.10;92.30
13600;DHT22;6871;51.34740610;4.31323160;2023-11-21T02:16:11;15.10;92.30
13600;DHT22;6871;51.34740610;4.31323160;2023-11-21T02:18:40;15.10;92.30
13600;DHT22;6871;51.34740610;4.31323160;2023-11-21T02:21:10;15.10;92.40
13600;DHT22;6871;51.34740610;4.31323160;2023-11-21T02:23:39;15.10;92.40
13600;DHT22;6871;51.34740610;4.31323160;2023-11-21T02:26:11;15.10;92.30
13600;DHT22;6871;51.34740610;4.31323160;2023-11-21T02:28:41;15.10;92.40
13600;DHT22;6871;51.34740610;4.31323160;2023-11-21T02:31:10;15.10;92.40
13600;DHT22;6871;51.34740610;4.31323160;2023-11-21T02:33:40;15.00;92.40
13600;DHT22;6871;51.34740610;4.31323160;2023-11-21T02:36:10;15.00;92.40
13600;DHT22;6871;51.34740610;4.31323160;2023-11-21T02:38:40;15.00;92.40
13600;DHT22;6871;51.34740610;4.31323160;2023-11-21T02:41:09;15.00;92.40
13600;DHT22;6871;51.34740610;4.31323160;2023-11-21T02:43:38;15.00;92.40
13600;DHT22;6871;51.34740610;4.31323160;2023-11-21T02:46:09;15.00;92.40
13600;DHT22;6871;51.34740610;4.31323160;2023-11-21T02:48:38;15.00;92.40
13600;DHT22;6871;51.34740610;4.31323160;2023-11-21T02:51:07;15.00;92.40
13600;DHT22;6871;51.34740610;4.31323160;2023-11-21T02:53:37;15.00;92.40
13600;DHT22;6871;51.34740610;4.31323160;2023-11-21T02:56:07;15.00;92.40
13600;DHT22;6871;51.34740610;4.31323160;2023-11-21T02:58:37;15.00;92.40
13600;DHT22;6871;51.34740610;4.31323160;2023-11-21T03:01:06;15.00;92.40
13600;DHT22;6871;51.34740610;4.31323160;2023-11-21T03:03:44;15.00;92.40
13600;DHT22;6871;51.34740610;4.31323160;2023-11-21T03:06:15;15.00;92.30
13600;DHT22;6871;51.34740610;4.31323160;2023-11-21T03:08:45;15.00;92.40
13600;DHT22;6871;51.34740610;4.31323160;2023-11-21T03:11:16;15.00;92.40
13600;DHT22;6871;51.34740610;4.31323160;2023-11-21T03:13:45;15.00;92.40
13600;DHT22;6871;51.34740610;4.31323160;2023-11-21T03:16:16;15.00;92.40
13600;DHT22;6871;51.34740610;4.31323160;2023-11-21T03:18:47;15.00;92.20
13600;DHT22;6871;51.34740610;4.31323160;2023-11-21T03:21:21;15.00;92.40
13600;DHT22;6871;51.34740610;4.31323160;2023-11-21T03:23:51;15.00;92.40
13600;DHT22;6871;51.34740610;4.31323160;2023-11-21T03:26:21;15.00;92.40
13600;DHT22;6871;51.34740610;4.31323160;2023-11-21T03:28:50;15.00;92.50
13600;DHT22;6871;51.34740610;4.31323160;2023-11-21T03:31:21;15.00;92.40
13600;DHT22;6871;51.34740610;4.31323160;2023-11-21T03:33:50;15.00;92.40
13600;DHT22;6871;51.34740610;4.31323160;2023-11-21T03:36:21;15.00;92.40
13600;DHT22;6871;51.34740610;4.31323160;2023-11-21T03:38:52;15.00;92.40
13600;DHT22;6871;51.34740610;4.31323160;2023-11-21T03:41:22;15.00;92.40
13600;DHT22;6871;51.34740610;4.31323160;2023-11-21T03:43:52;15.00;92.40
13600;DHT22;6871;51.34740610;4.31323160;2023-11-21T03:46:21;15.00;92.40
13600;DHT22;6871;51.34740610;4.31323160;2023-11-21T03:48:51;15.00;92.40
13600;DHT22;6871;51.34740610;4.31323160;2023-11-21T03:51:20;15.00;92.40
13600;DHT22;6871;51.34740610;4.31323160;2023-11-21T03:53:50;15.00;92.40
13600;DHT22;6871;51.34740610;4.31323160;2023-11-21T03:56:32;15.00;92.40
13600;DHT22;6871;51.34740610;4.31323160;2023-11-21T03:59:01;15.00;92.40
13600;DHT22;6871;51.34740610;4.31323160;2023-11-21T04:01:31;15.00;92.40
13600;DHT22;6871;51.34740610;4.31323160;2023-11-21T04:04:00;15.00;92.50
13600;DHT22;6871;51.34740610;4.31323160;2023-11-21T04:06:30;15.00;92.40
13600;DHT22;6871;51.34740610;4.31323160;2023-11-21T04:09:00;15.00;92.40
13600;DHT22;6871;51.34740610;4.31323160;2023-11-21T04:11:31;15.00;92.40
13600;DHT22;6871;51.34740610;4.31323160;2023-11-21T04:14:01;15.00;92.40
13600;DHT22;6871;51.34740610;4.31323160;2023-11-21T04:16:30;15.00;92.40
13600;DHT22;6871;51.34740610;4.31323160;2023-11-21T04:18:59;15.00;92.40
13600;DHT22;6871;51.34740610;4.31323160;2023-11-21T04:21:29;15.00;92.40
13600;DHT22;6871;51.34740610;4.31323160;2023-11-21T04:23:58;15.00;92.40
13600;DHT22;6871;51.34740610;4.31323160;2023-11-21T04:26:27;15.00;92.40
13600;DHT22;6871;51.34740610;4.31323160;2023-11-21T04:28:58;15.00;92.40
13600;DHT22;6871;51.34740610;4.31323160;2023-11-21T04:31:27;15.00;92.30
13600;DHT22;6871;51.34740610;4.31323160;2023-11-21T04:33:56;15.00;92.40
13600;DHT22;6871;51.34740610;4.31323160;2023-11-21T04:36:25;15.00;92.40
13600;DHT22;6871;51.34740610;4.31323160;2023-11-21T04:38:54;15.00;92.40
13600;DHT22;6871;51.34740610;4.31323160;2023-11-21T04:41:24;15.00;92.30
13600;DHT22;6871;51.34740610;4.31323160;2023-11-21T04:43:53;15.00;92.30
13600;DHT22;6871;51.34740610;4.31323160;2023-11-21T04:46:22;15.00;92.40
13600;DHT22;6871;51.34740610;4.31323160;2023-11-21T04:48:51;15.00;92.40
13600;DHT22;6871;51.34740610;4.31323160;2023-11-21T04:51:21;15.00;92.30
13600;DHT22;6871;51.34740610;4.31323160;2023-11-21T04:53:50;15.00;92.40
13600;DHT22;6871;51.34740610;4.31323160;2023-11-21T04:56:19;15.00;92.40
13600;DHT22;6871;51.34740610;4.31323160;2023-11-21T04:58:49;15.00;92.40
13600;DHT22;6871;51.34740610;4.31323160;2023-11-21T05:01:18;15.00;92.40
13600;DHT22;6871;51.34740610;4.31323160;2023-11-21T05:03:48;15.00;92.40
13600;DHT22;6871;51.34740610;4.31323160;2023-11-21T05:06:18;14.90;92.10
13600;DHT22;6871;51.34740610;4.31323160;2023-11-21T05:08:50;15.00;92.40
13600;DHT22;6871;51.34740610;4.31323160;2023-11-21T05:11:26;15.00;92.40
13600;DHT22;6871;51.34740610;4.31323160;2023-11-21T05:13:56;15.00;92.40
13600;DHT22;6871;51.34740610;4.31323160;2023-11-21T05:16:27;15.00;92.40
13600;DHT22;6871;51.34740610;4.31323160;2023-11-21T05:18:56;15.00;92.40
13600;DHT22;6871;51.34740610;4.31323160;2023-11-21T05:21:27;15.00;92.40
13600;DHT22;6871;51.34740610;4.31323160;2023-11-21T05:23:58;15.00;92.40
13600;DHT22;6871;51.34740610;4.31323160;2023-11-21T05:26:28;14.90;92.40
13600;DHT22;6871;51.34740610;4.31323160;2023-11-21T05:28:57;15.00;92.40
13600;DHT22;6871;51.34740610;4.31323160;2023-11-21T05:31:26;15.00;92.80
13600;DHT22;6871;51.34740610;4.31323160;2023-11-21T05:33:55;15.00;92.40
13600;DHT22;6871;51.34740610;4.31323160;2023-11-21T05:36:24;15.00;92.40
13600;DHT22;6871;51.34740610;4.31323160;2023-11-21T05:38:54;14.90;92.40
13600;DHT22;6871;51.34740610;4.31323160;2023-11-21T05:41:23;14.90;92.70
13600;DHT22;6871;51.34740610;4.31323160;2023-11-21T05:43:53;15.00;92.40
13600;DHT22;6871;51.34740610;4.31323160;2023-11-21T05:46:22;15.00;92.50
13600;DHT22;6871;51.34740610;4.31323160;2023-11-21T05:48:52;14.90;92.40
13600;DHT22;6871;51.34740610;4.31323160;2023-11-21T05:51:22;15.00;92.40
13600;DHT22;6871;51.34740610;4.31323160;2023-11-21T05:53:52;15.00;92.40
13600;DHT22;6871;51.34740610;4.31323160;2023-11-21T05:56:22;14.90;92.40
13600;DHT22;6871;51.34740610;4.31323160;2023-11-21T05:58:51;14.90;92.40
13600;DHT22;6871;51.34740610;4.31323160;2023-11-21T06:01:20;15.00;92.40
13600;DHT22;6871;51.34740610;4.31323160;2023-11-21T06:03:50;15.00;92.40
13600;DHT22;6871;51.34740610;4.31323160;2023-11-21T06:06:19;15.00;92.40
13600;DHT22;6871;51.34740610;4.31323160;2023-11-21T06:08:50;15.00;92.40
13600;DHT22;6871;51.34740610;4.31323160;2023-11-21T06:11:19;15.00;92.40
13600;DHT22;6871;51.34740610;4.31323160;2023-11-21T06:13:49;15.00;92.50
13600;DHT22;6871;51.34740610;4.31323160;2023-11-21T06:16:20;14.90;92.50
13600;DHT22;6871;51.34740610;4.31323160;2023-11-21T06:18:49;14.90;92.50
13600;DHT22;6871;51.34740610;4.31323160;2023-11-21T06:21:19;15.00;92.50
13600;DHT22;6871;51.34740610;4.31323160;2023-11-21T06:23:49;15.00;92.40
13600;DHT22;6871;51.34740610;4.31323160;2023-11-21T06:26:18;15.00;92.40
13600;DHT22;6871;51.34740610;4.31323160;2023-11-21T06:28:49;15.00;92.40
13600;DHT22;6871;51.34740610;4.31323160;2023-11-21T06:31:19;14.90;92.40
13600;DHT22;6871;51.34740610;4.31323160;2023-11-21T06:33:49;15.00;92.40
13600;DHT22;6871;51.34740610;4.31323160;2023-11-21T06:36:19;14.90;92.40
13600;DHT22;6871;51.34740610;4.31323160;2023-11-21T06:38:49;15.00;92.50
13600;DHT22;6871;51.34740610;4.31323160;2023-11-21T06:41:18;14.90;92.50
13600;DHT22;6871;51.34740610;4.31323160;2023-11-21T06:43:47;15.00;92.40
13600;DHT22;6871;51.34740610;4.31323160;2023-11-21T06:46:17;15.00;92.40
13600;DHT22;6871;51.34740610;4.31323160;2023-11-21T06:48:47;14.90;92.50
13600;DHT22;6871;51.34740610;4.31323160;2023-11-21T06:51:17;14.90;92.90
13600;DHT22;6871;51.34740610;4.31323160;2023-11-21T06:53:46;14.90;92.70
13600;DHT22;6871;51.34740610;4.31323160;2023-11-21T06:56:19;14.90;92.70
13600;DHT22;6871;51.34740610;4.31323160;2023-11-21T06:58:49;14.90;92.70
13600;DHT22;6871;51.34740610;4.31323160;2023-11-21T07:01:20;14.90;92.60
13600;DHT22;6871;51.34740610;4.31323160;2023-11-21T07:03:50;15.00;92.60
13600;DHT22;6871;51.34740610;4.31323160;2023-11-21T07:06:19;14.90;92.50
13600;DHT22;6871;51.34740610;4.31323160;2023-11-21T07:08:48;15.00;92.60
13600;DHT22;6871;51.34740610;4.31323160;2023-11-21T07:11:17;14.90;92.50
13600;DHT22;6871;51.34740610;4.31323160;2023-11-21T07:13:47;14.90;92.50
13600;DHT22;6871;51.34740610;4.31323160;2023-11-21T07:16:16;14.90;92.50
13600;DHT22;6871;51.34740610;4.31323160;2023-11-21T07:18:46;14.90;92.50
13600;DHT22;6871;51.34740610;4.31323160;2023-11-21T07:21:17;14.90;92.50
13600;DHT22;6871;51.34740610;4.31323160;2023-11-21T07:23:47;14.90;92.40
13600;DHT22;6871;51.34740610;4.31323160;2023-11-21T07:26:16;14.90;92.50
13600;DHT22;6871;51.34740610;4.31323160;2023-11-21T07:28:46;14.90;92.70
13600;DHT22;6871;51.34740610;4.31323160;2023-11-21T07:31:15;14.90;92.70
13600;DHT22;6871;51.34740610;4.31323160;2023-11-21T07:33:45;15.00;92.60
13600;DHT22;6871;51.34740610;4.31323160;2023-11-21T07:36:15;15.00;92.50
13600;DHT22;6871;51.34740610;4.31323160;2023-11-21T07:38:46;15.00;92.50
13600;DHT22;6871;51.34740610;4.31323160;2023-11-21T07:41:15;15.00;92.50
13600;DHT22;6871;51.34740610;4.31323160;2023-11-21T07:43:45;15.00;92.50
13600;DHT22;6871;51.34740610;4.31323160;2023-11-21T07:46:14;15.00;92.50
13600;DHT22;6871;51.34740610;4.31323160;2023-11-21T07:48:44;15.00;92.50
13600;DHT22;6871;51.34740610;4.31323160;2023-11-21T07:51:14;15.00;92.50
13600;DHT22;6871;51.34740610;4.31323160;2023-11-21T07:53:43;15.00;92.50
13600;DHT22;6871;51.34740610;4.31323160;2023-11-21T07:56:13;15.00;92.50
13600;DHT22;6871;51.34740610;4.31323160;2023-11-21T07:58:42;14.90;92.50
13600;DHT22;6871;51.34740610;4.31323160;2023-11-21T08:01:12;15.00;92.50
13600;DHT22;6871;51.34740610;4.31323160;2023-11-21T08:03:43;15.00;92.50
13600;DHT22;6871;51.34740610;4.31323160;2023-11-21T08:06:13;15.00;92.50
13600;DHT22;6871;51.34740610;4.31323160;2023-11-21T08:08:43;15.00;92.50
13600;DHT22;6871;51.34740610;4.31323160;2023-11-21T08:11:12;15.00;92.50
13600;DHT22;6871;51.34740610;4.31323160;2023-11-21T08:13:43;15.00;92.50
13600;DHT22;6871;51.34740610;4.31323160;2023-11-21T08:16:13;15.00;92.50
13600;DHT22;6871;51.34740610;4.31323160;2023-11-21T08:18:42;15.00;92.50
13600;DHT22;6871;51.34740610;4.31323160;2023-11-21T08:21:13;15.00;92.50
13600;DHT22;6871;51.34740610;4.31323160;2023-11-21T08:23:42;15.00;92.50
13600;DHT22;6871;51.34740610;4.31323160;2023-11-21T08:26:11;15.00;92.50
13600;DHT22;6871;51.34740610;4.31323160;2023-11-21T08:28:41;15.00;92.50
13600;DHT22;6871;51.34740610;4.31323160;2023-11-21T08:31:11;15.00;92.50
13600;DHT22;6871;51.34740610;4.31323160;2023-11-21T08:33:40;15.00;92.50
13600;DHT22;6871;51.34740610;4.31323160;2023-11-21T08:36:10;15.00;92.50
13600;DHT22;6871;51.34740610;4.31323160;2023-11-21T08:38:39;15.00;92.50
13600;DHT22;6871;51.34740610;4.31323160;2023-11-21T08:41:09;14.90;92.50
13600;DHT22;6871;51.34740610;4.31323160;2023-11-21T08:43:38;15.00;92.50
13600;DHT22;6871;51.34740610;4.31323160;2023-11-21T08:46:08;14.90;92.70
13600;DHT22;6871;51.34740610;4.31323160;2023-11-21T08:48:38;14.90;92.70
13600;DHT22;6871;51.34740610;4.31323160;2023-11-21T08:51:09;14.90;92.60
13600;DHT22;6871;51.34740610;4.31323160;2023-11-21T08:53:39;15.00;92.60
13600;DHT22;6871;51.34740610;4.31323160;2023-11-21T08:56:12;14.90;92.80
13600;DHT22;6871;51.34740610;4.31323160;2023-11-21T08:58:42;14.80;92.90
13600;DHT22;6871;51.34740610;4.31323160;2023-11-21T09:01:13;14.90;92.70
13600;DHT22;6871;51.34740610;4.31323160;2023-11-21T09:03:42;14.90;92.70
13600;DHT22;6871;51.34740610;4.31323160;2023-11-21T09:06:12;15.00;92.70
13600;DHT22;6871;51.34740610;4.31323160;2023-11-21T09:08:42;14.90;92.60
13600;DHT22;6871;51.34740610;4.31323160;2023-11-21T09:11:12;14.90;93.00
13600;DHT22;6871;51.34740610;4.31323160;2023-11-21T09:13:41;14.90;93.20
13600;DHT22;6871;51.34740610;4.31323160;2023-11-21T09:16:10;14.90;93.10
13600;DHT22;6871;51.34740610;4.31323160;2023-11-21T09:18:40;14.90;93.20
13600;DHT22;6871;51.34740610;4.31323160;2023-11-21T09:21:09;14.90;93.00
13600;DHT22;6871;51.34740610;4.31323160;2023-11-21T09:23:38;15.00;92.80
13600;DHT22;6871;51.34740610;4.31323160;2023-11-21T09:26:09;15.00;93.00
13600;DHT22;6871;51.34740610;4.31323160;2023-11-21T09:28:38;15.00;92.90
13600;DHT22;6871;51.34740610;4.31323160;2023-11-21T09:31:07;15.00;92.80
13600;DHT22;6871;51.34740610;4.31323160;2023-11-21T09:33:37;15.00;92.80
13600;DHT22;6871;51.34740610;4.31323160;2023-11-21T09:36:11;15.00;92.90
13600;DHT22;6871;51.34740610;4.31323160;2023-11-21T09:38:42;15.00;92.80
13600;DHT22;6871;51.34740610;4.31323160;2023-11-21T09:41:19;15.00;92.80
13600;DHT22;6871;51.34740610;4.31323160;2023-11-21T09:43:47;15.00;92.90
13600;DHT22;6871;51.34740610;4.31323160;2023-11-21T09:46:18;15.00;92.80
13600;DHT22;6871;51.34740610;4.31323160;2023-11-21T09:48:52;15.10;92.80
13600;DHT22;6871;51.34740610;4.31323160;2023-11-21T09:51:22;15.10;92.80
13600;DHT22;6871;51.34740610;4.31323160;2023-11-21T09:53:53;15.00;92.90
13600;DHT22;6871;51.34740610;4.31323160;2023-11-21T09:56:23;15.00;93.00
13600;DHT22;6871;51.34740610;4.31323160;2023-11-21T09:58:54;15.10;93.10
13600;DHT22;6871;51.34740610;4.31323160;2023-11-21T10:01:26;15.10;93.20
13600;DHT22;6871;51.34740610;4.31323160;2023-11-21T10:03:57;15.10;93.30
13600;DHT22;6871;51.34740610;4.31323160;2023-11-21T10:06:30;15.10;93.40
13600;DHT22;6871;51.34740610;4.31323160;2023-11-21T10:09:00;15.10;93.40
13600;DHT22;6871;51.34740610;4.31323160;2023-11-21T10:11:31;15.10;93.40
13600;DHT22;6871;51.34740610;4.31323160;2023-11-21T10:14:02;15.10;93.50
13600;DHT22;6871;51.34740610;4.31323160;2023-11-21T10:16:32;15.10;93.50
13600;DHT22;6871;51.34740610;4.31323160;2023-11-21T10:19:29;15.10;93.50
13600;DHT22;6871;51.34740610;4.31323160;2023-11-21T10:22:11;15.10;93.60
13600;DHT22;6871;51.34740610;4.31323160;2023-11-21T10:24:42;15.10;93.70
13600;DHT22;6871;51.34740610;4.31323160;2023-11-21T10:27:12;15.10;93.70
13600;DHT22;6871;51.34740610;4.31323160;2023-11-21T10:29:42;15.10;93.60
13600;DHT22;6871;51.34740610;4.31323160;2023-11-21T10:32:13;15.00;93.60
13600;DHT22;6871;51.34740610;4.31323160;2023-11-21T10:34:42;15.10;93.70
13600;DHT22;6871;51.34740610;4.31323160;2023-11-21T10:37:13;15.00;93.60
13600;DHT22;6871;51.34740610;4.31323160;2023-11-21T10:39:43;15.10;93.60
13600;DHT22;6871;51.34740610;4.31323160;2023-11-21T10:42:13;15.10;93.60
13600;DHT22;6871;51.34740610;4.31323160;2023-11-21T10:44:43;15.00;93.60
13600;DHT22;6871;51.34740610;4.31323160;2023-11-21T10:47:15;15.10;93.60
13600;DHT22;6871;51.34740610;4.31323160;2023-11-21T10:49:48;15.00;93.50
13600;DHT22;6871;51.34740610;4.31323160;2023-11-21T10:52:19;15.00;93.60
13600;DHT22;6871;51.34740610;4.31323160;2023-11-21T10:54:49;15.00;93.60
13600;DHT22;6871;51.34740610;4.31323160;2023-11-21T10:57:19;15.00;93.60
13600;DHT22;6871;51.34740610;4.31323160;2023-11-21T10:59:54;15.00;93.60
13600;DHT22;6871;51.34740610;4.31323160;2023-11-21T11:02:26;15.00;93.60
13600;DHT22;6871;51.34740610;4.31323160;2023-11-21T11:04:55;15.00;93.60
13600;DHT22;6871;51.34740610;4.31323160;2023-11-21T11:07:28;15.00;93.60
13600;DHT22;6871;51.34740610;4.31323160;2023-11-21T11:09:59;15.00;93.60
13600;DHT22;6871;51.34740610;4.31323160;2023-11-21T11:12:29;15.00;93.70
13600;DHT22;6871;51.34740610;4.31323160;2023-11-21T11:14:59;15.00;93.70
13600;DHT22;6871;51.34740610;4.31323160;2023-11-21T11:20:29;15.00;93.70
13600;DHT22;6871;51.34740610;4.31323160;2023-11-21T11:23:21;15.00;93.70
13600;DHT22;6871;51.34740610;4.31323160;2023-11-21T11:25:56;14.90;94.20
13600;DHT22;6871;51.34740610;4.31323160;2023-11-21T11:28:29;14.90;94.20
13600;DHT22;6871;51.34740610;4.31323160;2023-11-21T11:31:04;14.90;94.30
13600;DHT22;6871;51.34740610;4.31323160;2023-11-21T11:33:38;14.90;94.10
13600;DHT22;6871;51.34740610;4.31323160;2023-11-21T11:36:10;14.90;94.10
13600;DHT22;6871;51.34740610;4.31323160;2023-11-21T11:38:45;15.00;94.10
13600;DHT22;6871;51.34740610;4.31323160;2023-11-21T11:41:14;15.00;94.00
13600;DHT22;6871;51.34740610;4.31323160;2023-11-21T11:43:45;15.00;94.00
13600;DHT22;6871;51.34740610;4.31323160;2023-11-21T11:46:14;15.00;94.00
13600;DHT22;6871;51.34740610;4.31323160;2023-11-21T11:48:45;15.00;93.90
13600;DHT22;6871;51.34740610;4.31323160;2023-11-21T11:51:16;15.00;93.90
13600;DHT22;6871;51.34740610;4.31323160;2023-11-21T11:53:49;15.00;93.90
13600;DHT22;6871;51.34740610;4.31323160;2023-11-21T11:56:28;15.00;93.90
13600;DHT22;6871;51.34740610;4.31323160;2023-11-21T11:59:00;15.00;93.80
13600;DHT22;6871;51.34740610;4.31323160;2023-11-21T12:01:33;15.00;93.80
13600;DHT22;6871;51.34740610;4.31323160;2023-11-21T12:04:26;15.00;93.80
13600;DHT22;6871;51.34740610;4.31323160;2023-11-21T12:07:09;15.00;93.80
13600;DHT22;6871;51.34740610;4.31323160;2023-11-21T12:09:40;15.00;93.80
13600;DHT22;6871;51.34740610;4.31323160;2023-11-21T12:12:10;15.00;93.80
13600;DHT22;6871;51.34740610;4.31323160;2023-11-21T12:14:40;15.00;93.80
13600;DHT22;6871;51.34740610;4.31323160;2023-11-21T12:17:10;15.00;93.90
13600;DHT22;6871;51.34740610;4.31323160;2023-11-21T12:19:39;15.00;93.80
13600;DHT22;6871;51.34740610;4.31323160;2023-11-21T12:22:09;15.00;93.80
13600;DHT22;6871;51.34740610;4.31323160;2023-11-21T12:24:39;15.00;93.80
13600;DHT22;6871;51.34740610;4.31323160;2023-11-21T12:27:09;15.00;93.80
13600;DHT22;6871;51.34740610;4.31323160;2023-11-21T12:29:38;15.00;93.80
13600;DHT22;6871;51.34740610;4.31323160;2023-11-21T12:32:10;15.00;93.80
13600;DHT22;6871;51.34740610;4.31323160;2023-11-21T12:34:39;15.00;93.80
13600;DHT22;6871;51.34740610;4.31323160;2023-11-21T12:37:09;15.10;93.80
13600;DHT22;6871;51.34740610;4.31323160;2023-11-21T12:39:38;15.00;93.70
13600;DHT22;6871;51.34740610;4.31323160;2023-11-21T12:42:08;15.00;93.80
13600;DHT22;6871;51.34740610;4.31323160;2023-11-21T12:45:06;15.00;93.80
13600;DHT22;6871;51.34740610;4.31323160;2023-11-21T12:47:36;15.00;93.80
13600;DHT22;6871;51.34740610;4.31323160;2023-11-21T12:50:09;15.00;93.80
13600;DHT22;6871;51.34740610;4.31323160;2023-11-21T12:52:44;15.10;93.80
13600;DHT22;6871;51.34740610;4.31323160;2023-11-21T12:55:16;15.10;93.70
13600;DHT22;6871;51.34740610;4.31323160;2023-11-21T12:57:49;15.10;93.60
13600;DHT22;6871;51.34740610;4.31323160;2023-11-21T13:00:42;15.10;93.60
13600;DHT22;6871;51.34740610;4.31323160;2023-11-21T13:03:14;15.10;93.60
13600;DHT22;6871;51.34740610;4.31323160;2023-11-21T13:05:46;15.10;93.60
13600;DHT22;6871;51.34740610;4.31323160;2023-11-21T13:08:19;15.10;93.60
13600;DHT22;6871;51.34740610;4.31323160;2023-11-21T13:10:53;15.10;93.60
13600;DHT22;6871;51.34740610;4.31323160;2023-11-21T13:13:27;15.10;93.60
13600;DHT22;6871;51.34740610;4.31323160;2023-11-21T13:15:59;15.10;93.60
13600;DHT22;6871;51.34740610;4.31323160;2023-11-21T13:18:29;15.10;93.50
13600;DHT22;6871;51.34740610;4.31323160;2023-11-21T13:21:01;15.10;93.50
13600;DHT22;6871;51.34740610;4.31323160;2023-11-21T13:23:35;15.10;93.40
13600;DHT22;6871;51.34740610;4.31323160;2023-11-21T13:26:06;15.10;93.30
13600;DHT22;6871;51.34740610;4.31323160;2023-11-21T13:28:36;15.10;93.30
13600;DHT22;6871;51.34740610;4.31323160;2023-11-21T13:31:06;15.10;93.30
13600;DHT22;6871;51.34740610;4.31323160;2023-11-21T13:33:40;15.10;93.30
13600;DHT22;6871;51.34740610;4.31323160;2023-11-21T13:36:11;15.10;93.20
13600;DHT22;6871;51.34740610;4.31323160;2023-11-21T13:38:42;15.10;93.20
13600;DHT22;6871;51.34740610;4.31323160;2023-11-21T13:41:14;15.00;93.20
13600;DHT22;6871;51.34740610;4.31323160;2023-11-21T13:43:43;15.10;93.20
13600;DHT22;6871;51.34740610;4.31323160;2023-11-21T13:46:14;15.00;93.40
13600;DHT22;6871;51.34740610;4.31323160;2023-11-21T13:48:45;14.90;93.60
13600;DHT22;6871;51.34740610;4.31323160;2023-11-21T13:51:17;15.00;93.50
13600;DHT22;6871;51.34740610;4.31323160;2023-11-21T13:53:48;15.00;93.50
13600;DHT22;6871;51.34740610;4.31323160;2023-11-21T13:56:20;15.00;93.50